createdAt,value
2023-05-21T00:00:18.970Z,36.63
2023-05-21T00:02:45.575Z,36.88
2023-05-21T00:05:14.772Z,32.97
2023-05-21T00:07:41.573Z,36.55
2023-05-21T00:10:08.373Z,36.13
2023-05-21T00:12:34.904Z,39.05
2023-05-21T00:15:01.676Z,35.42
2023-05-21T00:17:28.649Z,35.63
2023-05-21T00:19:56.813Z,38.10
2023-05-21T00:22:23.923Z,36.05
2023-05-21T00:24:50.601Z,35.03
2023-05-21T00:27:17.131Z,38.13
2023-05-21T00:29:44.500Z,35.17
2023-05-21T00:32:11.243Z,38.33
2023-05-21T00:34:38.306Z,35.10
2023-05-21T00:37:04.941Z,33.55
2023-05-21T00:39:31.472Z,40.50
2023-05-21T00:41:58.042Z,37.50
2023-05-21T00:44:25.400Z,37.17
2023-05-21T00:46:53.712Z,37.30
2023-05-21T00:49:24.369Z,36.08
2023-05-21T00:51:51.918Z,40.58
2023-05-21T00:54:18.869Z,38.30
2023-05-21T00:56:45.958Z,41.70
2023-05-21T00:59:12.607Z,36.60
2023-05-21T01:01:39.184Z,38.00
2023-05-21T01:04:05.783Z,37.63
2023-05-21T01:06:35.100Z,43.85
2023-05-21T01:09:04.367Z,38.28
2023-05-21T01:11:40.769Z,38.45
2023-05-21T01:14:09.371Z,40.95
2023-05-21T01:16:39.797Z,40.33
2023-05-21T01:19:07.913Z,38.92
2023-05-21T01:21:37.356Z,41.33
2023-05-21T01:24:05.549Z,41.22
2023-05-21T01:26:33.736Z,40.75
2023-05-21T01:29:00.325Z,40.55
2023-05-21T01:31:31.663Z,40.88
2023-05-21T01:34:01.161Z,40.97
2023-05-21T01:36:34.514Z,40.78
2023-05-21T01:39:19.695Z,42.88
2023-05-21T01:41:46.692Z,41.13
2023-05-21T01:44:14.198Z,41.53
2023-05-21T01:46:40.785Z,46.70
2023-05-21T01:49:08.189Z,45.25
2023-05-21T01:51:35.533Z,44.70
2023-05-21T01:54:02.416Z,45.47
2023-05-21T01:56:29.142Z,44.92
2023-05-21T01:58:58.206Z,42.45
2023-05-21T02:01:24.958Z,43.20
2023-05-21T02:03:51.574Z,46.53
2023-05-21T02:06:18.147Z,47.20
2023-05-21T02:08:45.662Z,44.13
2023-05-21T02:11:12.200Z,43.58
2023-05-21T02:13:42.512Z,46.30
2023-05-21T02:16:12.067Z,43.28
2023-05-21T02:18:39.466Z,47.70
2023-05-21T02:21:06.095Z,41.17
2023-05-21T02:23:32.664Z,43.40
2023-05-21T02:25:59.144Z,43.15
2023-05-21T02:28:25.788Z,46.33
2023-05-21T02:30:52.496Z,44.85
2023-05-21T02:33:20.154Z,45.63
2023-05-21T02:35:46.681Z,44.25
2023-05-21T02:38:13.739Z,46.33
2023-05-21T02:40:40.550Z,45.08
2023-05-21T02:43:07.844Z,42.88
2023-05-21T02:45:34.528Z,46.67
2023-05-21T02:48:01.325Z,47.75
2023-05-21T02:50:29.750Z,52.25
2023-05-21T02:52:59.799Z,44.78
2023-05-21T02:55:26.832Z,44.13
2023-05-21T02:57:53.320Z,51.17
2023-05-21T03:00:19.852Z,47.15
2023-05-21T03:02:46.778Z,47.90
2023-05-21T03:05:13.470Z,46.33
2023-05-21T03:07:39.985Z,48.20
2023-05-21T03:10:07.056Z,46.25
2023-05-21T03:12:33.600Z,43.63
2023-05-21T03:15:00.160Z,43.88
2023-05-21T03:17:27.848Z,45.78
2023-05-21T03:19:54.760Z,50.35
2023-05-21T03:22:21.550Z,50.40
2023-05-21T03:24:49.085Z,50.20
2023-05-21T03:27:15.723Z,47.33
2023-05-21T03:29:43.788Z,50.42
2023-05-21T03:32:10.585Z,50.50
2023-05-21T03:34:37.327Z,48.63
2023-05-21T03:37:03.887Z,50.58
2023-05-21T03:39:31.894Z,48.15
2023-05-21T03:41:59.291Z,51.20
2023-05-21T03:44:35.854Z,45.28
2023-05-21T03:47:21.069Z,46.15
2023-05-21T03:49:48.649Z,50.63
2023-05-21T03:52:15.361Z,50.95
2023-05-21T03:54:41.868Z,46.10
2023-05-21T03:57:09.591Z,44.35
2023-05-21T03:59:36.223Z,46.60
2023-05-21T04:02:03.090Z,46.72
2023-05-21T04:04:29.796Z,42.70
2023-05-21T04:06:56.515Z,44.33
2023-05-21T04:09:23.144Z,43.53
2023-05-21T04:11:51.787Z,43.35
2023-05-21T04:14:32.221Z,42.28
2023-05-21T04:17:19.139Z,43.05
2023-05-21T04:19:49.640Z,48.42
2023-05-21T04:22:16.254Z,45.55
2023-05-21T04:24:43.591Z,44.55
2023-05-21T04:27:16.577Z,45.40
2023-05-21T04:29:43.881Z,43.35
2023-05-21T04:32:11.643Z,39.47
2023-05-21T04:34:39.600Z,44.63
2023-05-21T04:37:06.860Z,41.97
2023-05-21T04:39:34.716Z,41.22
2023-05-21T04:42:02.102Z,44.80
2023-05-21T04:44:29.564Z,38.78
2023-05-21T04:46:58.726Z,40.45
2023-05-21T04:49:25.616Z,44.13
2023-05-21T04:51:52.172Z,38.85
2023-05-21T04:54:18.722Z,38.78
2023-05-21T04:56:45.233Z,35.17
2023-05-21T04:59:11.841Z,37.03
2023-05-21T05:01:38.642Z,38.30
2023-05-21T05:04:05.705Z,34.28
2023-05-21T05:06:32.698Z,34.00
2023-05-21T05:08:59.349Z,31.73
2023-05-21T05:11:26.566Z,32.75
2023-05-21T05:13:53.167Z,32.65
2023-05-21T05:16:25.003Z,34.80
2023-05-21T05:18:54.905Z,33.03
2023-05-21T05:21:22.518Z,32.95
2023-05-21T05:23:49.180Z,37.30
2023-05-21T05:26:16.121Z,33.40
2023-05-21T05:28:42.640Z,31.88
2023-05-21T05:31:09.193Z,30.30
2023-05-21T05:33:35.809Z,33.25
2023-05-21T05:36:02.291Z,31.67
2023-05-21T05:38:28.840Z,32.08
2023-05-21T05:40:55.573Z,30.70
2023-05-21T05:43:22.405Z,31.23
2023-05-21T05:45:48.983Z,32.65
2023-05-21T05:48:16.787Z,33.33
2023-05-21T05:50:44.943Z,30.02
2023-05-21T05:53:13.278Z,33.72
2023-05-21T05:55:40.197Z,31.83
2023-05-21T05:58:07.104Z,31.95
2023-05-21T06:00:46.106Z,31.10
2023-05-21T06:03:13.268Z,29.83
2023-05-21T06:05:41.666Z,31.20
2023-05-21T06:08:08.212Z,30.17
2023-05-21T06:10:34.738Z,29.85
2023-05-21T06:13:01.276Z,28.65
2023-05-21T06:15:27.764Z,28.55
2023-05-21T06:17:54.376Z,30.50
2023-05-21T06:20:21.091Z,30.55
2023-05-21T06:22:47.657Z,30.20
2023-05-21T06:25:14.575Z,32.88
2023-05-21T06:27:41.234Z,28.55
2023-05-21T06:30:15.639Z,28.20
2023-05-21T06:32:43.248Z,26.65
2023-05-21T06:35:09.897Z,27.42
2023-05-21T06:37:36.424Z,26.50
2023-05-21T06:40:03.368Z,26.70
2023-05-21T06:42:31.264Z,24.88
2023-05-21T06:45:23.549Z,24.10
2023-05-21T06:47:53.369Z,22.92
2023-05-21T06:50:20.224Z,23.33
2023-05-21T06:52:47.040Z,24.67
2023-05-21T06:55:14.063Z,24.33
2023-05-21T06:57:59.039Z,23.20
2023-05-21T07:00:25.924Z,22.20
2023-05-21T07:02:53.170Z,22.13
2023-05-21T07:05:20.169Z,23.40
2023-05-21T07:07:46.657Z,21.95
2023-05-21T07:10:13.201Z,23.05
2023-05-21T07:12:40.807Z,22.98
2023-05-21T07:15:07.931Z,20.45
2023-05-21T07:17:34.557Z,20.98
2023-05-21T07:20:01.317Z,22.02
2023-05-21T07:22:28.577Z,21.75
2023-05-21T07:24:55.198Z,21.17
2023-05-21T07:27:25.681Z,21.65
2023-05-21T07:29:54.424Z,20.75
2023-05-21T07:32:21.623Z,22.45
2023-05-21T07:34:49.127Z,20.38
2023-05-21T07:37:16.032Z,20.35
2023-05-21T07:39:42.679Z,20.30
2023-05-21T07:42:10.995Z,18.42
2023-05-21T07:44:37.722Z,19.13
2023-05-21T07:47:04.597Z,19.65
2023-05-21T07:49:31.159Z,19.80
2023-05-21T07:51:58.054Z,19.42
2023-05-21T07:54:25.024Z,17.67
2023-05-21T07:56:52.379Z,18.08
2023-05-21T07:59:42.328Z,18.73
2023-05-21T08:02:08.926Z,18.08
2023-05-21T08:04:37.441Z,18.45
2023-05-21T08:07:05.975Z,17.88
2023-05-21T08:09:32.600Z,19.63
2023-05-21T08:11:59.412Z,18.67
2023-05-21T08:14:26.035Z,17.48
2023-05-21T08:16:53.250Z,19.27
2023-05-21T08:19:20.448Z,18.65
2023-05-21T08:21:47.748Z,18.48
2023-05-21T08:24:14.634Z,19.25
2023-05-21T08:26:41.340Z,19.65
2023-05-21T08:29:07.844Z,19.48
2023-05-21T08:31:34.398Z,19.35
2023-05-21T08:34:01.104Z,18.90
2023-05-21T08:36:38.242Z,19.40
2023-05-21T08:39:15.204Z,18.17
2023-05-21T08:41:49.397Z,19.23
2023-05-21T08:44:21.028Z,19.38
2023-05-21T08:46:49.810Z,19.63
2023-05-21T08:49:17.528Z,18.67
2023-05-21T08:51:45.709Z,17.75
2023-05-21T08:54:13.962Z,18.65
2023-05-21T08:56:45.737Z,19.00
2023-05-21T08:59:12.919Z,18.10
2023-05-21T09:01:42.381Z,17.30
2023-05-21T09:04:21.610Z,20.05
2023-05-21T09:09:34.150Z,18.52
2023-05-21T09:12:01.099Z,17.42
2023-05-21T09:14:28.461Z,17.73
2023-05-21T09:17:27.343Z,17.90
2023-05-21T09:20:13.221Z,16.88
2023-05-21T09:22:48.574Z,16.08
2023-05-21T09:25:16.916Z,15.93
2023-05-21T09:27:44.035Z,16.55
2023-05-21T09:30:12.902Z,15.73
2023-05-21T09:32:40.630Z,17.08
2023-05-21T09:35:09.943Z,16.88
2023-05-21T09:37:40.613Z,16.73
2023-05-21T09:40:12.191Z,16.70
2023-05-21T09:42:43.319Z,15.48
2023-05-21T09:45:11.356Z,16.67
2023-05-21T09:47:42.680Z,15.65
2023-05-21T09:50:11.664Z,14.65
2023-05-21T09:52:41.363Z,19.95
2023-05-21T09:55:13.099Z,17.58
2023-05-21T09:57:49.110Z,17.08
2023-05-21T10:00:24.158Z,15.23
2023-05-21T10:02:54.833Z,14.80
2023-05-21T10:05:26.254Z,15.02
2023-05-21T10:07:54.396Z,15.82
2023-05-21T10:10:24.460Z,17.45
2023-05-21T10:13:11.240Z,15.93
2023-05-21T10:15:47.350Z,15.23
2023-05-21T10:18:15.038Z,14.65
2023-05-21T10:20:42.607Z,14.07
2023-05-21T10:23:09.543Z,14.07
2023-05-21T10:25:36.331Z,18.73
2023-05-21T10:28:03.143Z,15.10
2023-05-21T10:30:30.059Z,14.07
2023-05-21T10:32:57.334Z,12.80
2023-05-21T10:35:24.469Z,14.68
2023-05-21T10:37:51.980Z,14.82
2023-05-21T10:40:18.453Z,15.00
2023-05-21T10:43:14.293Z,14.70
2023-05-21T10:45:55.943Z,12.98
2023-05-21T10:48:35.838Z,13.07
2023-05-21T10:51:15.191Z,14.20
2023-05-21T10:53:59.273Z,13.45
2023-05-21T10:56:33.010Z,11.32
2023-05-21T10:59:25.736Z,10.88
2023-05-21T11:01:53.277Z,10.05
2023-05-21T11:04:26.057Z,11.55
2023-05-21T11:06:52.591Z,9.80
2023-05-21T11:09:20.004Z,10.57
2023-05-21T11:11:50.840Z,12.98
2023-05-21T11:14:27.413Z,10.07
2023-05-21T11:16:54.827Z,11.32
2023-05-21T11:19:21.385Z,11.95
2023-05-21T11:21:53.697Z,13.10
2023-05-21T11:24:20.562Z,11.25
2023-05-21T11:26:52.713Z,12.35
2023-05-21T11:29:19.958Z,11.27
2023-05-21T11:31:48.079Z,10.32
2023-05-21T11:34:16.175Z,10.77
2023-05-21T11:36:49.699Z,11.43
2023-05-21T11:39:22.237Z,11.63
2023-05-21T11:41:59.805Z,12.07
2023-05-21T11:44:47.985Z,11.60
2023-05-21T11:47:16.134Z,11.85
2023-05-21T11:49:42.900Z,10.50
2023-05-21T11:52:10.550Z,10.30
2023-05-21T11:54:43.908Z,10.20
2023-05-21T11:59:37.057Z,11.02
2023-05-21T12:02:04.158Z,13.30
2023-05-21T12:04:31.360Z,12.30
2023-05-21T12:07:00.427Z,9.95
2023-05-21T12:09:26.950Z,11.05
2023-05-21T12:11:53.514Z,10.05
2023-05-21T12:14:21.547Z,9.77
2023-05-21T12:16:48.209Z,12.18
2023-05-21T12:19:17.750Z,12.52
2023-05-21T12:21:44.366Z,10.48
2023-05-21T12:24:10.930Z,10.60
2023-05-21T12:26:37.496Z,12.70
2023-05-21T12:29:04.676Z,10.95
2023-05-21T12:31:32.666Z,10.55
2023-05-21T12:33:59.612Z,11.80
2023-05-21T12:36:27.484Z,10.60
2023-05-21T12:38:54.463Z,9.80
2023-05-21T12:41:22.100Z,13.05
2023-05-21T12:43:48.930Z,13.00
2023-05-21T12:46:17.611Z,10.30
2023-05-21T12:48:53.180Z,9.68
2023-05-21T12:51:20.248Z,12.35
2023-05-21T12:53:47.142Z,16.63
2023-05-21T12:56:15.360Z,10.95
2023-05-21T12:58:43.494Z,9.32
2023-05-21T13:01:11.396Z,11.63
2023-05-21T13:03:38.871Z,12.40
2023-05-21T13:06:08.988Z,9.02
2023-05-21T13:08:35.701Z,11.20
2023-05-21T13:11:03.072Z,9.70
2023-05-21T13:13:30.064Z,10.23
2023-05-21T13:15:56.811Z,12.93
2023-05-21T13:18:23.390Z,9.93
2023-05-21T13:20:51.609Z,12.15
2023-05-21T13:23:18.169Z,9.98
2023-05-21T13:25:44.814Z,10.05
2023-05-21T13:28:15.011Z,9.95
2023-05-21T13:30:41.630Z,9.48
2023-05-21T13:33:08.254Z,9.45
2023-05-21T13:35:35.280Z,8.82
2023-05-21T13:38:02.074Z,11.00
2023-05-21T13:40:28.626Z,10.10
2023-05-21T13:42:55.099Z,9.77
2023-05-21T13:45:21.652Z,9.63
2023-05-21T13:47:48.288Z,9.35
2023-05-21T13:50:15.725Z,11.55
2023-05-21T13:52:42.315Z,11.82
2023-05-21T13:55:09.482Z,8.93
2023-05-21T13:57:35.988Z,8.93
2023-05-21T14:00:03.458Z,9.75
2023-05-21T14:02:34.558Z,10.57
2023-05-21T14:05:01.285Z,9.57
2023-05-21T14:07:27.805Z,11.30
2023-05-21T14:09:54.355Z,10.23
2023-05-21T14:12:21.712Z,9.90
2023-05-21T14:14:49.773Z,10.05
2023-05-21T14:17:16.459Z,12.95
2023-05-21T14:19:43.034Z,10.30
2023-05-21T14:22:09.571Z,13.52
2023-05-21T14:24:36.357Z,13.05
2023-05-21T14:27:02.951Z,9.70
2023-05-21T14:29:29.471Z,12.32
2023-05-21T14:31:56.079Z,9.57
2023-05-21T14:34:22.637Z,12.05
2023-05-21T14:36:49.154Z,11.07
2023-05-21T14:39:15.721Z,9.82
2023-05-21T14:41:42.625Z,9.13
2023-05-21T14:44:09.136Z,10.88
2023-05-21T14:46:36.760Z,11.55
2023-05-21T14:49:03.784Z,10.35
2023-05-21T14:51:31.470Z,9.52
2023-05-21T14:53:58.179Z,12.73
2023-05-21T14:56:27.328Z,11.60
2023-05-21T14:58:54.013Z,10.30
2023-05-21T15:01:20.584Z,9.35
2023-05-21T15:03:47.253Z,12.85
2023-05-21T15:06:13.796Z,10.23
2023-05-21T15:08:40.319Z,9.90
2023-05-21T15:11:09.777Z,11.50
2023-05-21T15:13:36.263Z,10.15
2023-05-21T15:16:02.797Z,11.85
2023-05-21T15:18:29.684Z,13.95
2023-05-21T15:20:56.289Z,12.55
2023-05-21T15:23:22.808Z,13.18
2023-05-21T15:25:49.307Z,11.02
2023-05-21T15:28:15.856Z,12.80
2023-05-21T15:30:42.405Z,11.20
2023-05-21T15:33:08.884Z,11.90
2023-05-21T15:35:36.194Z,11.05
2023-05-21T15:38:03.222Z,13.00
2023-05-21T15:40:29.760Z,11.57
2023-05-21T15:42:56.248Z,13.80
2023-05-21T15:45:22.807Z,12.93
2023-05-21T15:47:49.301Z,10.65
2023-05-21T15:50:16.056Z,12.23
2023-05-21T15:52:42.770Z,12.25
2023-05-21T15:55:09.628Z,11.45
2023-05-21T15:57:36.167Z,10.43
2023-05-21T16:00:02.918Z,9.85
2023-05-21T16:02:35.247Z,9.00
2023-05-21T16:05:01.913Z,9.90
2023-05-21T16:07:28.451Z,9.20
2023-05-21T16:09:54.966Z,9.20
2023-05-21T16:12:21.530Z,11.73
2023-05-21T16:14:51.619Z,10.45
2023-05-21T16:17:19.757Z,9.57
2023-05-21T16:19:47.296Z,10.23
2023-05-21T16:22:14.038Z,9.68
2023-05-21T16:24:40.627Z,9.68
2023-05-21T16:27:07.193Z,9.70
2023-05-21T16:29:33.688Z,15.40
2023-05-21T16:32:00.357Z,10.32
2023-05-21T16:34:26.871Z,9.30
2023-05-21T16:36:53.364Z,9.73
2023-05-21T16:39:19.890Z,9.45
2023-05-21T16:41:46.428Z,9.73
2023-05-21T16:44:13.004Z,13.00
2023-05-21T16:46:39.561Z,10.65
2023-05-21T16:49:06.130Z,16.23
2023-05-21T16:51:32.657Z,10.25
2023-05-21T16:53:59.169Z,11.05
2023-05-21T16:56:27.527Z,10.38
2023-05-21T16:58:54.076Z,10.55
2023-05-21T17:01:20.703Z,9.88
2023-05-21T17:03:47.288Z,9.32
2023-05-21T17:06:14.864Z,12.80
2023-05-21T17:08:42.398Z,11.75
2023-05-21T17:11:09.056Z,10.48
2023-05-21T17:13:35.556Z,10.48
2023-05-21T17:16:02.116Z,12.70
2023-05-21T17:18:28.637Z,9.18
2023-05-21T17:20:56.071Z,8.80
2023-05-21T17:23:22.717Z,10.73
2023-05-21T17:25:49.266Z,10.40
2023-05-21T17:28:15.785Z,16.52
2023-05-21T17:30:42.929Z,8.93
2023-05-21T17:33:10.384Z,10.32
2023-05-21T17:35:37.428Z,11.07
2023-05-21T17:38:04.214Z,8.98
2023-05-21T17:40:30.716Z,12.25
2023-05-21T17:42:57.290Z,11.02
2023-05-21T17:45:23.788Z,9.77
2023-05-21T17:47:50.378Z,11.43
2023-05-21T17:50:16.910Z,10.68
2023-05-21T17:52:43.417Z,10.60
2023-05-21T17:55:10.804Z,10.10
2023-05-21T17:57:37.299Z,10.90
2023-05-21T18:00:05.133Z,9.35
2023-05-21T18:02:38.490Z,11.40
2023-05-21T18:05:05.380Z,12.82
2023-05-21T18:07:32.095Z,10.35
2023-05-21T18:09:58.627Z,10.77
2023-05-21T18:12:25.314Z,13.65
2023-05-21T18:14:51.912Z,11.25
2023-05-21T18:17:18.421Z,13.15
2023-05-21T18:19:44.930Z,11.02
2023-05-21T18:22:11.490Z,10.52
2023-05-21T18:24:38.331Z,10.85
2023-05-21T18:27:04.972Z,12.57
2023-05-21T18:29:31.668Z,11.10
2023-05-21T18:31:58.229Z,11.60
2023-05-21T18:34:24.843Z,11.15
2023-05-21T18:36:51.332Z,14.00
2023-05-21T18:39:17.912Z,12.05
2023-05-21T18:41:44.481Z,10.98
2023-05-21T18:44:10.999Z,9.48
2023-05-21T18:46:37.848Z,10.52
2023-05-21T18:49:05.042Z,9.30
2023-05-21T18:51:31.793Z,12.20
2023-05-21T18:53:58.723Z,9.45
2023-05-21T18:56:25.881Z,12.15
2023-05-21T18:58:52.474Z,9.20
2023-05-21T19:01:19.032Z,10.32
2023-05-21T19:03:45.631Z,9.77
2023-05-21T19:06:12.205Z,11.15
2023-05-21T19:08:40.452Z,11.40
2023-05-21T19:11:07.408Z,10.05
2023-05-21T19:13:34.241Z,10.02
2023-05-21T19:16:01.962Z,10.35
2023-05-21T19:18:31.852Z,10.73
2023-05-21T19:21:00.236Z,16.65
2023-05-21T19:23:26.803Z,9.63
2023-05-21T19:25:53.270Z,9.48
2023-05-21T19:28:19.859Z,12.23
2023-05-21T19:30:46.500Z,10.02
2023-05-21T19:33:14.155Z,10.95
2023-05-21T19:35:41.949Z,14.93
2023-05-21T19:38:11.531Z,10.68
2023-05-21T19:40:38.624Z,10.88
2023-05-21T19:43:05.416Z,12.43
2023-05-21T19:45:31.981Z,11.35
2023-05-21T19:47:59.780Z,11.50
2023-05-21T19:50:28.611Z,9.98
2023-05-21T19:52:57.108Z,10.70
2023-05-21T19:55:24.894Z,10.27
2023-05-21T19:57:51.605Z,12.10
2023-05-21T20:00:18.891Z,13.15
2023-05-21T20:02:46.444Z,14.75
2023-05-21T20:05:13.191Z,12.40
2023-05-21T20:07:39.766Z,13.68
2023-05-21T20:10:07.351Z,11.40
2023-05-21T20:12:34.411Z,11.95
2023-05-21T20:15:04.688Z,12.57
2023-05-21T20:17:33.855Z,11.30
2023-05-21T20:20:01.369Z,12.30
2023-05-21T20:22:28.254Z,14.75
2023-05-21T20:24:55.786Z,14.23
2023-05-21T20:27:22.312Z,12.85
2023-05-21T20:29:49.222Z,13.77
2023-05-21T20:32:15.821Z,11.80
2023-05-21T20:34:50.726Z,12.52
2023-05-21T20:37:29.713Z,11.95
2023-05-21T20:39:57.821Z,13.02
2023-05-21T20:42:28.318Z,13.20
2023-05-21T20:44:55.176Z,13.85
2023-05-21T20:47:23.360Z,11.88
2023-05-21T20:49:53.652Z,15.20
2023-05-21T20:52:20.601Z,11.40
2023-05-21T20:54:47.097Z,12.65
2023-05-21T20:57:14.037Z,12.82
2023-05-21T20:59:40.509Z,12.95
2023-05-21T21:02:10.441Z,12.20
2023-05-21T21:04:37.917Z,13.43
2023-05-21T21:07:07.843Z,22.40
2023-05-21T21:09:34.387Z,15.65
2023-05-21T21:12:06.153Z,15.20
2023-05-21T21:14:37.998Z,13.50
2023-05-21T21:17:04.648Z,16.27
2023-05-21T21:19:31.268Z,13.32
2023-05-21T21:21:57.988Z,14.95
2023-05-21T21:24:24.500Z,18.92
2023-05-21T21:26:51.020Z,14.43
2023-05-21T21:29:17.564Z,16.33
2023-05-21T21:31:44.636Z,14.65
2023-05-21T21:34:11.212Z,14.25
2023-05-21T21:36:37.771Z,13.93
2023-05-21T21:39:04.297Z,13.40
2023-05-21T21:41:30.832Z,13.95
2023-05-21T21:43:57.543Z,15.25
2023-05-21T21:46:24.778Z,16.55
2023-05-21T21:48:51.345Z,14.98
2023-05-21T21:51:17.899Z,15.10
2023-05-21T21:53:44.448Z,15.38
2023-05-21T21:56:11.038Z,15.18
2023-05-21T21:58:37.629Z,13.38
2023-05-21T22:01:04.165Z,15.27
2023-05-21T22:03:34.381Z,20.08
2023-05-21T22:06:01.147Z,14.90
2023-05-21T22:08:28.692Z,13.98
2023-05-21T22:10:56.167Z,13.40
2023-05-21T22:13:22.734Z,13.93
2023-05-21T22:15:49.779Z,13.27
2023-05-21T22:18:28.317Z,14.40
2023-05-21T22:20:59.696Z,15.10
2023-05-21T22:23:26.258Z,13.65
2023-05-21T22:25:52.759Z,17.52
2023-05-21T22:28:22.296Z,15.10
2023-05-21T22:30:48.819Z,13.75
2023-05-21T22:33:15.964Z,15.45
2023-05-21T22:35:42.592Z,13.02
2023-05-21T22:38:09.080Z,15.38
2023-05-21T22:40:36.022Z,13.50
2023-05-21T22:43:03.052Z,16.05
2023-05-21T22:45:29.677Z,16.15
2023-05-21T22:47:56.678Z,15.23
2023-05-21T22:50:25.187Z,14.30
2023-05-21T22:52:51.737Z,13.18
2023-05-21T22:55:18.220Z,17.08
2023-05-21T22:57:44.717Z,13.27
2023-05-21T23:00:11.634Z,16.48
2023-05-21T23:02:38.271Z,14.05
2023-05-21T23:05:05.516Z,14.25
2023-05-21T23:07:32.125Z,17.33
2023-05-21T23:09:58.620Z,14.60
2023-05-21T23:12:25.157Z,15.32
2023-05-21T23:14:51.648Z,18.02
2023-05-21T23:17:18.177Z,16.00
2023-05-21T23:19:44.644Z,17.63
2023-05-21T23:22:11.225Z,14.45
2023-05-21T23:24:38.907Z,15.00
2023-05-21T23:27:05.474Z,15.95
2023-05-21T23:29:31.961Z,16.05
2023-05-21T23:32:00.799Z,14.80
2023-05-21T23:34:27.609Z,14.80
2023-05-21T23:36:54.177Z,17.63
2023-05-21T23:39:21.095Z,14.63
2023-05-21T23:41:47.944Z,15.07
2023-05-21T23:44:15.405Z,16.85
2023-05-21T23:46:45.163Z,15.63
2023-05-21T23:49:11.699Z,19.23
2023-05-21T23:51:38.823Z,19.80
2023-05-21T23:54:05.641Z,15.70
2023-05-21T23:56:32.166Z,18.50
2023-05-21T23:58:58.779Z,15.32
